Terminal Aerodrome Forecast
Issued by NWS Sioux Falls, SD

Home | Current Version | Previous Version | Text Only | Print | Product List | Glossary On
Versions: 1 2 3 4 5 6 7 8 9 10 11 12 13
060
FTUS43 KFSD 261132
TAFFSD
TAF
KFSD 261132Z 2612/2712 VRB04KT P6SM FEW200
     FM261400 11005KT P6SM FEW250
     FM262100 14009KT P6SM BKN250
     FM270500 13006KT P6SM -SHRA OVC080
     FM270900 15004KT P6SM OVC025
      TEMPO 2710/2712 4SM BR=

USA.gov is the U.S. government's official web portal to all federal, state and local government web resources and services.